Time;durP1;ratioP1;P1;durP2;ratioP2;P2;SDS_P1;SDS_P2;PMS_P1;PMS_P2;Temp;Humidity;BMP_temperature;BMP_pressure;BME280_temperature;BME280_humidity;BME280_pressure;Samples;Min_cycle;Max_cycle;Signal;HPM_P1;HPM_P2
2022/05/22 00:01:14;;;;;;;15.35;7.95;;;12.40;92.00;;;;;;4905950;28;20653;-82
2022/05/22 00:03:40;;;;;;;6.72;6.05;;;12.50;92.30;;;;;;4936280;28;20043;-82
2022/05/22 00:06:06;;;;;;;5.45;4.45;;;12.50;92.20;;;;;;4925308;28;20039;-82
2022/05/22 00:08:31;;;;;;;8.48;5.57;;;12.70;92.10;;;;;;4911038;28;20028;-82
2022/05/22 00:10:57;;;;;;;8.85;6.47;;;12.60;92.10;;;;;;4941475;28;20027;-82
2022/05/22 00:13:22;;;;;;;8.85;6.30;;;12.50;92.30;;;;;;4919977;29;20095;-81
2022/05/22 00:18:32;;;;;;;14.38;6.97;;;12.50;92.80;;;;;;4933888;28;20034;-81
2022/05/22 00:20:58;;;;;;;13.35;8.00;;;12.40;93.00;;;;;;4936489;28;20039;-81
2022/05/22 00:23:24;;;;;;;8.73;7.03;;;12.30;94.10;;;;;;4923269;28;20059;-81
2022/05/22 00:25:49;;;;;;;12.00;7.57;;;12.20;93.70;;;;;;4925136;28;20129;-81
2022/05/22 00:28:15;;;;;;;8.63;7.40;;;12.30;93.70;;;;;;4910188;29;20164;-81
2022/05/22 00:30:40;;;;;;;18.02;8.95;;;12.20;94.40;;;;;;4908032;28;20407;-81
2022/05/22 00:33:06;;;;;;;14.13;8.32;;;12.20;94.10;;;;;;4921287;28;20567;-82
2022/05/22 00:35:32;;;;;;;11.38;7.78;;;12.20;94.70;;;;;;4935847;28;20028;-82
2022/05/22 00:37:57;;;;;;;11.95;8.07;;;12.10;94.50;;;;;;4936466;28;20039;-81
2022/05/22 00:40:23;;;;;;;10.50;8.65;;;12.00;95.90;;;;;;4920069;28;20027;-82
2022/05/22 00:42:50;;;;;;;12.07;8.27;;;12.10;95.40;;;;;;4938241;28;20139;-82
2022/05/22 00:45:15;;;;;;;13.38;8.65;;;12.20;95.20;;;;;;4926167;28;20031;-82
2022/05/22 00:47:41;;;;;;;14.68;8.73;;;12.10;98.10;;;;;;4922863;28;20179;-81
2022/05/22 00:50:07;;;;;;;13.68;7.97;;;12.00;96.50;;;;;;4922594;28;20023;-82
2022/05/22 00:52:40;;;;;;;6.13;4.82;;;12.00;99.90;;;;;;4923657;29;20427;-81
2022/05/22 00:55:13;;;;;;;10.65;6.25;;;12.10;98.00;;;;;;4935454;28;20032;-81
2022/05/22 00:57:42;;;;;;;8.23;5.57;;;12.20;97.40;;;;;;4933127;29;20036;-81
2022/05/22 01:00:29;;;;;;;14.30;7.72;;;12.20;97.10;;;;;;4923860;28;20518;-81
2022/05/22 01:05:39;;;;;;;14.98;8.23;;;12.20;97.00;;;;;;4934378;28;20389;-81
2022/05/22 01:08:05;;;;;;;18.13;9.75;;;12.10;97.00;;;;;;4936807;28;20028;-81
2022/05/22 01:10:51;;;;;;;18.27;10.15;;;12.00;98.80;;;;;;4920742;28;20093;-81
2022/05/22 01:13:18;;;;;;;14.65;9.02;;;12.00;98.70;;;;;;4928239;28;20032;-81
2022/05/22 01:15:44;;;;;;;14.63;9.35;;;12.10;98.30;;;;;;4919092;28;20047;-81
2022/05/22 01:18:10;;;;;;;15.55;9.48;;;11.90;98.00;;;;;;4922010;28;20035;-81
2022/05/22 01:20:35;;;;;;;13.15;8.65;;;11.90;98.40;;;;;;4924975;28;20035;-81
2022/05/22 01:23:01;;;;;;;19.05;9.52;;;11.80;98.30;;;;;;4939951;28;20055;-81
2022/05/22 01:25:26;;;;;;;14.43;9.73;;;11.80;99.30;;;;;;4918530;29;20040;-81
2022/05/22 01:27:53;;;;;;;15.65;8.60;;;11.70;99.00;;;;;;4920585;29;20032;-82
2022/05/22 01:30:25;;;;;;;11.95;8.13;;;11.80;98.90;;;;;;4937079;28;20038;-81
2022/05/22 01:32:50;;;;;;;12.80;8.55;;;11.80;98.60;;;;;;4925146;28;20028;-81
2022/05/22 01:35:18;;;;;;;13.55;8.75;;;11.80;98.70;;;;;;4928405;28;20043;-81
2022/05/22 01:37:44;;;;;;;15.10;8.80;;;11.70;99.30;;;;;;4923157;28;20047;-81
2022/05/22 01:40:10;;;;;;;11.27;8.05;;;11.70;98.70;;;;;;4938918;28;20491;-81
2022/05/22 01:42:36;;;;;;;12.32;6.63;;;11.70;98.60;;;;;;4936947;28;20035;-82
2022/05/22 01:45:03;;;;;;;9.10;5.63;;;11.80;98.90;;;;;;4919189;28;20086;-81
2022/05/22 01:47:32;;;;;;;14.15;7.93;;;11.80;98.50;;;;;;4918343;28;20074;-81
2022/05/22 01:49:57;;;;;;;14.48;9.02;;;11.70;99.80;;;;;;4914167;28;20038;-81
2022/05/22 01:52:23;;;;;;;13.02;8.63;;;11.60;99.90;;;;;;4920982;29;20395;-81
2022/05/22 01:54:48;;;;;;;11.85;9.30;;;11.60;99.90;;;;;;4907707;28;20369;-81
2022/05/22 01:57:14;;;;;;;15.35;9.00;;;11.50;99.90;;;;;;4921613;28;20031;-81
2022/05/22 01:59:39;;;;;;;10.02;7.68;;;11.50;99.90;;;;;;4899462;28;20028;-81
2022/05/22 02:02:05;;;;;;;7.55;5.40;;;11.60;99.90;;;;;;4925805;29;20031;-81
2022/05/22 02:04:30;;;;;;;5.97;4.88;;;11.60;99.90;;;;;;4918809;28;20062;-81
2022/05/22 02:09:41;;;;;;;14.65;6.78;;;11.80;99.90;;;;;;4935462;28;20122;-81
2022/05/22 02:12:07;;;;;;;10.45;7.13;;;11.80;99.90;;;;;;4927273;29;20546;-81
2022/05/22 02:14:32;;;;;;;13.35;8.05;;;11.70;99.90;;;;;;4933015;28;20114;-81
2022/05/22 02:16:58;;;;;;;14.02;7.93;;;11.60;99.80;;;;;;4937535;28;20069;-81
2022/05/22 02:19:23;;;;;;;8.35;5.60;;;11.50;99.90;;;;;;4911673;28;20080;-80
2022/05/22 02:21:49;;;;;;;8.55;6.88;;;11.50;99.90;;;;;;4918626;28;20091;-80
2022/05/22 02:24:14;;;;;;;11.55;8.02;;;11.40;99.90;;;;;;4930354;28;20032;-81
2022/05/22 02:26:40;;;;;;;13.35;7.55;;;11.30;99.90;;;;;;4933544;28;20043;-81
2022/05/22 02:29:06;;;;;;;12.70;7.32;;;11.40;99.90;;;;;;4916249;28;20024;-81
2022/05/22 02:31:32;;;;;;;12.10;8.43;;;11.40;99.90;;;;;;4936958;28;20467;-81
2022/05/22 02:33:58;;;;;;;12.70;8.63;;;11.40;99.90;;;;;;4923560;28;20528;-80
2022/05/22 02:36:24;;;;;;;14.85;8.93;;;11.40;99.90;;;;;;4934572;28;20657;-80
2022/05/22 02:38:49;;;;;;;18.42;8.65;;;11.30;99.90;;;;;;4931219;28;20040;-80
2022/05/22 02:41:15;;;;;;;9.98;6.53;;;11.30;99.90;;;;;;4936578;28;20031;-80
2022/05/22 02:43:41;;;;;;;5.32;4.80;;;11.30;99.90;;;;;;4917200;28;20182;-80
2022/05/22 02:46:10;;;;;;;11.63;7.60;;;11.30;99.90;;;;;;4934371;28;20049;-81
2022/05/22 02:48:36;;;;;;;14.73;8.57;;;11.30;99.90;;;;;;4933512;28;20082;-80
2022/05/22 02:51:02;;;;;;;13.70;7.88;;;11.20;99.90;;;;;;4918806;28;20043;-80
2022/05/22 02:53:27;;;;;;;13.45;8.60;;;11.10;99.90;;;;;;4938342;28;20173;-79
2022/05/22 02:55:53;;;;;;;11.75;8.98;;;11.10;99.90;;;;;;4919771;28;20118;-80
2022/05/22 02:58:18;;;;;;;12.43;9.65;;;11.10;99.90;;;;;;4932293;28;20035;-80
2022/05/22 03:00:44;;;;;;;16.63;9.50;;;11.10;99.90;;;;;;4904943;28;21088;-80
2022/05/22 03:03:10;;;;;;;12.77;9.23;;;11.00;99.90;;;;;;4917498;29;20024;-79
2022/05/22 03:08:19;;;;;;;13.30;8.98;;;11.00;99.90;;;;;;4938267;28;20034;-80
2022/05/22 03:10:45;;;;;;;12.95;8.93;;;11.00;99.90;;;;;;4937116;28;20115;-80
2022/05/22 03:13:12;;;;;;;17.50;9.13;;;11.00;99.90;;;;;;4934962;28;20027;-80
2022/05/22 03:15:38;;;;;;;10.75;7.18;;;11.00;99.90;;;;;;4923340;28;20037;-80
2022/05/22 03:18:03;;;;;;;10.45;7.13;;;11.00;99.90;;;;;;4936056;28;20039;-80
2022/05/22 03:20:30;;;;;;;15.93;8.55;;;11.00;99.90;;;;;;4908613;29;20034;-80
2022/05/22 03:22:59;;;;;;;13.00;8.20;;;11.00;99.90;;;;;;4910396;28;20035;-79
2022/05/22 03:25:25;;;;;;;12.45;8.90;;;10.90;99.90;;;;;;4920500;28;20040;-79
2022/05/22 03:27:50;;;;;;;14.63;9.57;;;10.90;99.90;;;;;;4925292;28;20070;-79
2022/05/22 03:30:16;;;;;;;19.02;9.10;;;11.20;99.90;;;;;;4934500;28;20055;-79
2022/05/22 03:32:41;;;;;;;8.43;5.18;;;11.00;99.90;;;;;;4924473;28;20055;-79
2022/05/22 03:35:07;;;;;;;8.75;6.32;;;11.10;99.90;;;;;;4922212;29;20482;-79
2022/05/22 03:37:33;;;;;;;16.20;9.65;;;11.20;99.90;;;;;;4925727;28;20499;-80
2022/05/22 03:39:58;;;;;;;16.80;9.07;;;11.10;99.90;;;;;;4937617;28;20545;-79
2022/05/22 03:42:24;;;;;;;14.30;8.77;;;11.00;99.90;;;;;;4919438;28;20550;-79
2022/05/22 03:44:50;;;;;;;14.63;9.43;;;11.00;99.90;;;;;;4926976;28;20031;-80
2022/05/22 03:47:15;;;;;;;14.88;9.68;;;11.00;99.90;;;;;;4919254;29;20099;-79
2022/05/22 03:49:41;;;;;;;14.52;9.15;;;10.90;99.90;;;;;;4907907;28;20054;-79
2022/05/22 03:52:07;;;;;;;19.10;9.30;;;10.80;99.90;;;;;;4938419;28;20531;-79
2022/05/22 03:54:32;;;;;;;15.82;9.32;;;10.80;99.90;;;;;;4921609;28;20107;-80
2022/05/22 03:56:58;;;;;;;9.27;5.60;;;10.90;99.90;;;;;;4903823;29;21714;-79
2022/05/22 03:59:24;;;;;;;6.60;5.80;;;10.90;99.90;;;;;;4912766;28;20023;-79
2022/05/22 04:01:50;;;;;;;19.48;8.63;;;11.00;99.90;;;;;;4938046;28;20119;-79
2022/05/22 04:04:16;;;;;;;16.48;8.80;;;11.00;99.90;;;;;;4940785;28;20126;-79
2022/05/22 04:06:41;;;;;;;14.73;9.25;;;10.90;99.90;;;;;;4910760;28;20027;-79
2022/05/22 04:09:08;;;;;;;20.02;9.02;;;10.80;99.90;;;;;;4929075;28;20039;-79
2022/05/22 04:11:34;;;;;;;11.50;8.40;;;10.90;99.90;;;;;;4937258;28;20031;-79
2022/05/22 04:14:00;;;;;;;12.07;9.30;;;11.00;99.90;;;;;;4923930;28;20396;-79
2022/05/22 04:16:25;;;;;;;13.18;9.02;;;11.00;99.90;;;;;;4907835;28;20483;-79
2022/05/22 04:18:51;;;;;;;19.75;10.82;;;11.00;99.90;;;;;;4922605;28;20039;-80
2022/05/22 04:21:16;;;;;;;21.55;10.05;;;11.10;99.90;;;;;;4906811;29;20047;-80
2022/05/22 04:26:28;;;;;;;14.20;8.63;;;11.20;99.90;;;;;;4936235;28;20531;-79
2022/05/22 04:28:54;;;;;;;15.95;9.20;;;11.30;99.90;;;;;;4908406;28;20150;-79
2022/05/22 04:31:19;;;;;;;19.88;10.25;;;11.40;99.90;;;;;;4922147;29;20377;-79
2022/05/22 04:33:45;;;;;;;14.73;9.88;;;11.40;99.90;;;;;;4923694;28;20040;-79
2022/05/22 04:36:10;;;;;;;14.27;9.85;;;11.40;99.90;;;;;;4926385;28;20038;-80
2022/05/22 04:38:36;;;;;;;19.30;10.88;;;11.50;99.90;;;;;;4922348;28;20028;-79
2022/05/22 04:41:02;;;;;;;16.83;9.68;;;11.50;99.90;;;;;;4921848;28;20044;-79
2022/05/22 04:43:28;;;;;;;6.32;4.82;;;11.60;99.90;;;;;;4925294;28;20054;-79
2022/05/22 04:45:54;;;;;;;10.27;6.43;;;11.70;99.90;;;;;;4932502;28;20112;-79
2022/05/22 04:48:20;;;;;;;13.15;8.95;;;12.00;99.90;;;;;;4917927;29;20138;-79
2022/05/22 04:50:46;;;;;;;13.40;9.20;;;11.80;99.90;;;;;;4905526;28;20036;-79
2022/05/22 04:53:13;;;;;;;14.32;9.50;;;11.90;99.90;;;;;;4918575;28;20050;-79
2022/05/22 04:55:38;;;;;;;17.90;8.90;;;11.90;99.90;;;;;;4908603;28;20036;-79
2022/05/22 04:58:04;;;;;;;13.50;9.27;;;11.90;99.90;;;;;;4908972;28;20094;-80
2022/05/22 05:00:30;;;;;;;17.05;9.70;;;12.00;99.90;;;;;;4910998;28;20034;-79
2022/05/22 05:02:55;;;;;;;12.32;8.75;;;12.10;99.90;;;;;;4922823;29;20555;-79
2022/05/22 05:05:21;;;;;;;12.85;7.97;;;12.10;99.90;;;;;;4923810;28;20047;-80
2022/05/22 05:07:46;;;;;;;11.13;7.72;;;12.20;99.90;;;;;;4939714;28;20074;-79
2022/05/22 05:10:12;;;;;;;13.07;9.32;;;12.20;99.90;;;;;;4921120;28;20506;-79
2022/05/22 05:12:38;;;;;;;15.05;9.48;;;12.30;99.90;;;;;;4902784;29;20462;-79
2022/05/22 05:15:05;;;;;;;19.30;9.27;;;12.30;99.90;;;;;;4918743;28;20031;-79
2022/05/22 05:17:30;;;;;;;14.30;8.55;;;12.30;99.90;;;;;;4920897;28;20407;-79
2022/05/22 05:19:56;;;;;;;12.43;9.15;;;12.40;99.90;;;;;;4904408;29;20042;-79
2022/05/22 05:22:21;;;;;;;14.07;8.77;;;12.40;99.90;;;;;;4912476;29;20034;-80
2022/05/22 05:24:47;;;;;;;17.05;8.77;;;12.40;99.90;;;;;;4938154;28;20070;-80
2022/05/22 05:27:13;;;;;;;14.55;8.77;;;12.40;99.90;;;;;;4925185;28;20055;-79
2022/05/22 05:29:38;;;;;;;12.15;9.13;;;12.40;99.90;;;;;;4937696;28;20043;-80
2022/05/22 05:32:04;;;;;;;14.55;9.27;;;12.50;99.90;;;;;;4925074;28;20483;-80
2022/05/22 05:34:29;;;;;;;15.90;9.52;;;12.50;99.90;;;;;;4922549;29;20047;-80
2022/05/22 05:36:55;;;;;;;15.20;9.48;;;12.50;99.90;;;;;;4937296;28;20095;-80
2022/05/22 05:39:21;;;;;;;14.57;9.30;;;12.50;99.90;;;;;;4905452;28;20059;-80
2022/05/22 05:41:46;;;;;;;15.02;8.65;;;12.50;99.90;;;;;;4900265;29;20035;-80
2022/05/22 05:44:12;;;;;;;18.30;10.48;;;12.60;99.90;;;;;;4925439;28;20484;-80
2022/05/22 05:46:38;;;;;;;17.13;9.55;;;12.70;99.90;;;;;;4913772;28;20046;-80
2022/05/22 05:49:04;;;;;;;16.30;9.05;;;12.90;99.90;;;;;;4923429;29;20039;-80
2022/05/22 05:51:31;;;;;;;15.20;8.60;;;13.10;99.90;;;;;;4883524;28;20042;-80
2022/05/22 05:53:56;;;;;;;16.70;9.15;;;13.30;99.90;;;;;;4899953;28;20578;-80
2022/05/22 05:56:22;;;;;;;16.85;8.48;;;13.50;99.90;;;;;;4917838;28;20038;-80
2022/05/22 05:58:48;;;;;;;14.80;9.63;;;13.60;99.90;;;;;;4931743;28;20035;-80
2022/05/22 06:01:15;;;;;;;11.27;8.02;;;13.80;99.90;;;;;;4934266;28;20035;-80
2022/05/22 06:03:40;;;;;;;13.55;8.13;;;14.00;99.90;;;;;;4905398;28;20039;-80
2022/05/22 06:06:07;;;;;;;13.50;7.43;;;14.20;99.90;;;;;;4918415;28;20488;-80
2022/05/22 06:08:33;;;;;;;11.40;7.45;;;14.20;99.90;;;;;;4925074;28;20032;-80
2022/05/22 06:10:58;;;;;;;15.38;7.28;;;14.80;99.90;;;;;;4918426;28;20032;-80
2022/05/22 06:13:24;;;;;;;11.10;7.60;;;15.20;99.90;;;;;;4920625;28;20115;-80
2022/05/22 06:15:50;;;;;;;9.45;5.63;;;15.30;99.90;;;;;;4902316;29;20047;-80
2022/05/22 06:18:15;;;;;;;11.90;7.60;;;15.40;99.90;;;;;;4921622;28;20027;-80
2022/05/22 06:20:41;;;;;;;9.52;6.88;;;15.80;99.90;;;;;;4932575;28;20031;-80
2022/05/22 06:23:08;;;;;;;14.00;7.93;;;16.10;99.90;;;;;;4930001;29;20042;-80
2022/05/22 06:25:34;;;;;;;10.38;6.57;;;16.30;99.90;;;;;;4904039;28;20610;-81
2022/05/22 06:28:01;;;;;;;12.82;7.30;;;16.60;99.90;;;;;;4904298;28;20039;-80
2022/05/22 06:30:27;;;;;;;12.20;7.78;;;16.80;99.90;;;;;;4890083;28;20468;-80
2022/05/22 06:32:52;;;;;;;14.57;7.50;;;17.30;99.90;;;;;;4937875;28;20098;-80
2022/05/22 06:35:18;;;;;;;15.68;7.22;;;17.50;99.90;;;;;;4919890;28;20038;-81
2022/05/22 06:37:44;;;;;;;14.10;7.07;;;17.70;99.90;;;;;;4920612;29;20039;-80
2022/05/22 06:40:09;;;;;;;11.60;7.40;;;17.80;99.90;;;;;;4925185;28;20094;-81
2022/05/22 06:42:42;;;;;;;9.95;6.38;;;18.10;99.90;;;;;;4935029;28;20367;-81
2022/05/22 06:45:13;;;;;;;8.88;6.22;;;18.40;99.90;;;;;;4917810;28;20036;-80
2022/05/22 06:47:40;;;;;;;6.03;4.47;;;18.60;99.90;;;;;;4936873;28;20139;-81
2022/05/22 06:50:07;;;;;;;10.73;6.30;;;18.80;99.90;;;;;;4925473;28;20031;-81
2022/05/22 06:52:33;;;;;;;10.55;6.47;;;19.00;99.90;;;;;;4908666;28;20047;-81
2022/05/22 06:54:59;;;;;;;14.82;7.95;;;19.40;99.90;;;;;;4902458;28;20118;-80
2022/05/22 06:57:25;;;;;;;11.65;6.10;;;19.60;99.90;;;;;;4926743;28;20028;-81
2022/05/22 06:59:53;;;;;;;18.77;7.80;;;19.40;99.90;;;;;;4917397;28;20058;-81
2022/05/22 07:02:18;;;;;;;12.55;6.82;;;19.90;99.90;;;;;;4920855;28;20039;-81
2022/05/22 07:04:44;;;;;;;18.15;7.30;;;20.10;99.90;;;;;;4932850;28;20043;-81
2022/05/22 07:07:10;;;;;;;13.13;6.53;;;20.30;99.90;;;;;;4931898;28;20483;-82
2022/05/22 07:09:35;;;;;;;14.82;7.07;;;21.00;99.90;;;;;;4902677;28;20031;-81
2022/05/22 07:12:01;;;;;;;12.82;6.65;;;20.80;99.90;;;;;;4923157;28;20115;-81
2022/05/22 07:14:28;;;;;;;8.98;5.82;;;21.10;99.90;;;;;;4918931;29;20028;-81
2022/05/22 07:16:54;;;;;;;10.75;6.70;;;21.30;99.90;;;;;;4912384;28;20047;-81
2022/05/22 07:19:19;;;;;;;11.70;7.30;;;20.90;99.90;;;;;;4943488;28;20095;-82
2022/05/22 07:21:46;;;;;;;15.07;6.25;;;21.50;99.90;;;;;;4925932;29;20074;-81
2022/05/22 07:24:11;;;;;;;12.98;6.03;;;21.90;99.90;;;;;;4927958;28;20035;-83
2022/05/22 07:26:37;;;;;;;10.98;6.38;;;22.10;99.90;;;;;;4927341;29;20071;-81
2022/05/22 07:29:02;;;;;;;14.02;6.40;;;22.40;99.90;;;;;;4928950;28;20032;-81
2022/05/22 07:31:28;;;;;;;11.63;5.43;;;23.10;99.90;;;;;;4923772;28;20039;-81
2022/05/22 07:33:55;;;;;;;15.27;6.35;;;23.00;99.90;;;;;;4915875;28;20530;-81
2022/05/22 07:36:20;;;;;;;12.15;5.78;;;22.50;99.90;;;;;;4935467;28;20063;-81
2022/05/22 07:38:46;;;;;;;14.30;5.10;;;22.60;99.90;;;;;;4936854;29;20099;-82
2022/05/22 07:41:14;;;;;;;11.60;5.53;;;22.80;99.90;;;;;;4950246;28;20051;-82
2022/05/22 07:43:40;;;;;;;8.70;4.72;;;22.40;99.00;;;;;;4933773;28;20035;-82
2022/05/22 07:46:06;;;;;;;12.73;5.15;;;23.70;99.70;;;;;;4943654;28;20035;-82
2022/05/22 07:48:32;;;;;;;8.02;4.53;;;23.10;98.80;;;;;;4937839;29;20019;-82
2022/05/22 07:50:58;;;;;;;11.63;4.50;;;23.50;98.60;;;;;;4940939;28;20035;-82
2022/05/22 07:53:25;;;;;;;10.23;5.85;;;23.40;96.60;;;;;;4934021;28;20031;-82
2022/05/22 07:55:50;;;;;;;9.93;5.53;;;23.70;95.80;;;;;;4933418;28;20047;-81
2022/05/22 07:58:19;;;;;;;11.77;5.57;;;23.70;95.70;;;;;;4930492;29;20031;-82
2022/05/22 08:00:45;;;;;;;10.55;5.68;;;23.20;95.00;;;;;;4929883;29;20083;-82
2022/05/22 08:03:12;;;;;;;16.80;6.38;;;23.40;94.70;;;;;;4949753;28;20051;-81
2022/05/22 08:05:37;;;;;;;14.13;5.18;;;23.60;94.40;;;;;;4935965;28;20044;-81
2022/05/22 08:08:03;;;;;;;10.77;4.97;;;24.10;94.50;;;;;;4934338;28;20127;-81
2022/05/22 08:10:29;;;;;;;12.52;5.40;;;24.30;95.10;;;;;;4936468;28;20130;-81
2022/05/22 08:12:54;;;;;;;14.23;4.95;;;24.60;93.80;;;;;;4948737;29;20465;-81
2022/05/22 08:15:22;;;;;;;10.63;4.05;;;24.60;93.00;;;;;;4932788;29;20101;-81
2022/05/22 08:17:48;;;;;;;9.07;3.55;;;25.10;92.50;;;;;;4924040;29;20055;-82
2022/05/22 08:20:16;;;;;;;7.50;4.38;;;24.90;92.50;;;;;;4935219;29;20056;-82
2022/05/22 08:22:44;;;;;;;5.70;2.65;;;24.90;92.10;;;;;;4932395;28;20129;-82
2022/05/22 08:25:16;;;;;;;6.47;2.90;;;24.90;92.00;;;;;;4932937;28;20035;-81
2022/05/22 08:27:41;;;;;;;8.25;3.47;;;25.30;91.80;;;;;;4937464;28;20031;-82
2022/05/22 08:30:08;;;;;;;7.80;3.60;;;25.40;90.80;;;;;;4948263;28;20096;-82
2022/05/22 08:32:38;;;;;;;6.40;3.20;;;25.50;89.40;;;;;;4948400;28;20039;-82
2022/05/22 08:35:05;;;;;;;6.82;2.90;;;25.70;88.90;;;;;;4944304;28;20069;-83
2022/05/22 08:37:31;;;;;;;6.30;3.95;;;25.80;87.70;;;;;;4938013;28;20027;-83
2022/05/22 08:39:57;;;;;;;8.35;3.38;;;26.10;85.80;;;;;;4954855;28;20054;-83
2022/05/22 08:42:35;;;;;;;7.65;3.80;;;26.10;86.40;;;;;;4936733;29;20119;-84
2022/05/22 08:45:00;;;;;;;9.50;3.80;;;26.20;86.00;;;;;;4936234;28;20061;-84
2022/05/22 08:47:34;;;;;;;10.95;3.50;;;26.50;82.90;;;;;;4928981;28;20032;-84
2022/05/22 08:50:05;;;;;;;8.85;3.75;;;26.10;83.40;;;;;;4948728;28;20042;-84
2022/05/22 08:52:51;;;;;;;8.02;3.90;;;26.70;81.50;;;;;;4941271;28;20035;-84
2022/05/22 08:58:56;;;;;;;9.55;4.03;;;26.80;79.60;;;;;;4922114;28;20558;-84
2022/05/22 09:01:12;;;;;;;9.98;3.58;;;27.10;77.10;;;;;;4940860;28;20120;-85
2022/05/22 09:03:58;;;;;;;9.45;4.38;;;27.40;75.70;;;;;;4923619;28;20039;-86
2022/05/22 09:06:30;;;;;;;11.25;3.42;;;27.50;74.10;;;;;;4915026;28;20094;-85
2022/05/22 09:08:55;;;;;;;9.82;4.00;;;27.30;75.90;;;;;;4921141;28;20064;-86
2022/05/22 09:11:42;;;;;;;8.30;4.10;;;27.50;73.30;;;;;;4926734;29;20031;-87
2022/05/22 09:14:10;;;;;;;6.43;2.20;;;27.60;73.50;;;;;;4940595;28;20451;-87
2022/05/22 09:17:05;;;;;;;8.38;4.03;;;27.60;75.10;;;;;;4928182;28;20378;-88
2022/05/22 09:19:35;;;;;;;8.10;3.92;;;28.00;72.40;;;;;;4936470;28;20031;-87
2022/05/22 09:22:12;;;;;;;10.40;4.18;;;28.20;73.30;;;;;;4939084;28;20483;-89
2022/05/22 09:25:02;;;;;;;11.55;5.50;;;28.20;70.20;;;;;;4919655;29;20103;-88
2022/05/22 09:27:49;;;;;;;9.57;4.10;;;28.30;67.20;;;;;;4923134;28;20054;-88
2022/05/22 09:30:42;;;;;;;11.40;4.78;;;28.30;68.90;;;;;;4921580;28;20032;-87
2022/05/22 09:33:26;;;;;;;10.48;4.22;;;28.40;68.60;;;;;;4917089;28;20054;-88
2022/05/22 09:36:23;;;;;;;6.20;3.20;;;28.50;68.00;;;;;;4941724;28;20042;-87
2022/05/22 09:39:11;;;;;;;13.68;5.05;;;28.40;68.60;;;;;;4932602;28;20027;-88
2022/05/22 09:41:56;;;;;;;11.40;5.03;;;28.60;68.90;;;;;;4923273;28;20456;-88
2022/05/22 09:44:43;;;;;;;14.30;5.60;;;28.90;64.70;;;;;;4927476;29;20520;-87
2022/05/22 09:47:09;;;;;;;8.93;4.55;;;29.00;63.10;;;;;;4922999;28;20054;-87
2022/05/22 09:49:44;;;;;;;6.95;4.30;;;29.20;62.70;;;;;;4938867;28;20078;-87
2022/05/22 09:52:15;;;;;;;7.88;4.55;;;29.40;62.90;;;;;;4953411;28;20086;-86
2022/05/22 09:54:59;;;;;;;7.18;3.03;;;29.40;61.90;;;;;;4921843;28;20455;-85
2022/05/22 09:57:48;;;;;;;10.65;4.30;;;29.50;64.40;;;;;;4943176;28;20086;-85
2022/05/22 10:00:19;;;;;;;10.65;4.43;;;29.60;61.90;;;;;;4937233;28;20090;-85
2022/05/22 10:03:09;;;;;;;12.82;3.40;;;29.80;61.80;;;;;;4921320;28;20396;-84
2022/05/22 10:05:40;;;;;;;14.05;5.40;;;30.00;60.90;;;;;;4923912;28;20044;-84
2022/05/22 10:08:43;;;;;;;9.80;4.30;;;30.30;58.70;;;;;;4942960;28;20035;-83
2022/05/22 10:11:20;;;;;;;8.02;2.83;;;30.60;57.70;;;;;;4954478;28;20155;-82
2022/05/22 10:13:54;;;;;;;7.70;3.53;;;30.80;60.00;;;;;;4937399;28;20173;-81
2022/05/22 10:16:39;;;;;;;8.38;2.85;;;30.80;59.50;;;;;;4936628;28;20037;-81
2022/05/22 10:19:15;;;;;;;8.68;3.55;;;31.00;59.60;;;;;;4920238;28;20027;-81
2022/05/22 10:22:01;;;;;;;9.90;2.45;;;31.00;59.60;;;;;;4920296;28;20136;-80
2022/05/22 10:24:55;;;;;;;10.75;4.20;;;31.20;60.00;;;;;;4936737;28;20638;-80
2022/05/22 10:27:31;;;;;;;7.13;4.88;;;31.60;57.20;;;;;;4930329;28;20039;-80
2022/05/22 10:29:58;;;;;;;;;;;31.80;54.60;;;;;;4937308;28;20035;-81
2022/05/22 10:32:41;;;;;;;9.13;3.78;;;31.80;55.30;;;;;;4940223;28;19942;-79
2022/05/22 10:35:27;;;;;;;9.73;4.43;;;32.00;56.50;;;;;;4916462;28;20154;-80
2022/05/22 10:37:58;;;;;;;10.93;3.38;;;32.30;53.40;;;;;;4927215;29;20043;-80
2022/05/22 10:40:24;;;;;;;8.10;3.03;;;32.30;54.20;;;;;;4920507;29;20123;-79
2022/05/22 10:42:54;;;;;;;8.48;3.05;;;32.40;57.00;;;;;;4937933;28;20045;-78
2022/05/22 10:45:26;;;;;;;5.65;2.53;;;32.40;55.20;;;;;;4917292;28;20753;-79
2022/05/22 10:47:52;;;;;;;5.43;2.13;;;32.50;54.10;;;;;;4937209;28;20062;-79
2022/05/22 10:50:24;;;;;;;12.45;4.50;;;32.30;54.10;;;;;;4904284;28;20407;-79
2022/05/22 10:52:50;;;;;;;7.68;2.40;;;32.70;53.60;;;;;;4921347;28;20059;-79
2022/05/22 10:55:27;;;;;;;10.93;3.72;;;32.80;55.50;;;;;;4931920;28;20031;-79
2022/05/22 10:57:58;;;;;;;8.00;3.50;;;33.00;55.00;;;;;;4933994;28;21123;-78
2022/05/22 11:00:25;;;;;;;6.30;2.47;;;33.00;52.60;;;;;;4911705;29;20027;-79
2022/05/22 11:02:50;;;;;;;8.65;3.72;;;33.00;53.90;;;;;;4921117;28;20499;-80
2022/05/22 11:05:20;;;;;;;8.77;2.75;;;33.20;54.20;;;;;;4908556;29;20067;-79
2022/05/22 11:07:47;;;;;;;6.07;2.60;;;33.50;53.90;;;;;;4918691;28;20437;-79
2022/05/22 11:10:27;;;;;;;12.27;3.40;;;33.50;54.00;;;;;;4919078;28;20114;-79
2022/05/22 11:13:08;;;;;;;6.22;2.80;;;33.50;51.80;;;;;;4932259;28;20035;-80
2022/05/22 11:15:42;;;;;;;4.78;3.02;;;33.70;52.00;;;;;;4786024;28;10000946;-78
2022/05/22 11:18:19;;;;;;;4.47;2.00;;;33.90;51.20;;;;;;4584619;28;9999663;-79
2022/05/22 11:20:50;;;;;;;5.05;2.00;;;34.00;51.60;;;;;;4935316;28;20035;-78
2022/05/22 11:23:26;;;;;;;8.88;2.80;;;33.70;51.50;;;;;;4917399;28;20036;-78
2022/05/22 11:26:18;;;;;;;6.63;1.85;;;33.70;50.70;;;;;;4924978;28;20652;-78
2022/05/22 11:28:49;;;;;;;7.25;2.53;;;33.50;51.10;;;;;;4926540;28;20055;-78
2022/05/22 11:31:41;;;;;;;6.50;2.40;;;33.40;52.00;;;;;;4939037;28;20047;-78
2022/05/22 11:34:37;;;;;;;7.45;3.15;;;33.30;50.40;;;;;;4922508;28;20063;-78
2022/05/22 11:37:24;;;;;;;5.57;2.53;;;33.10;51.30;;;;;;4936494;28;20035;-78
2022/05/22 11:39:57;;;;;;;5.72;2.90;;;33.10;49.40;;;;;;4936044;28;20126;-78
2022/05/22 11:42:38;;;;;;;5.72;2.38;;;32.90;48.90;;;;;;4934605;28;20034;-78
2022/05/22 11:45:16;;;;;;;5.07;1.90;;;32.90;48.80;;;;;;4904214;29;20570;-78
2022/05/22 11:48:11;;;;;;;6.78;2.50;;;32.70;49.90;;;;;;4936489;28;20066;-78
2022/05/22 11:50:47;;;;;;;4.22;1.90;;;32.70;49.40;;;;;;4922832;28;20138;-78
2022/05/22 11:53:49;;;;;;;5.68;2.50;;;32.80;50.70;;;;;;4934274;28;20160;-79
2022/05/22 11:56:42;;;;;;;6.18;2.40;;;32.80;50.00;;;;;;4916884;28;20049;-78
2022/05/22 11:59:47;;;;;;;5.85;2.35;;;32.80;48.60;;;;;;4932653;28;20039;-78
2022/05/22 12:02:25;;;;;;;7.20;2.53;;;32.80;48.20;;;;;;4931343;28;20705;-77
2022/05/22 12:05:15;;;;;;;4.85;1.60;;;32.80;46.70;;;;;;4933964;28;20484;-79
2022/05/22 12:08:07;;;;;;;7.13;2.63;;;32.70;49.80;;;;;;4934896;28;20052;-78
2022/05/22 12:10:40;;;;;;;4.32;2.15;;;32.50;49.10;;;;;;4939078;28;20518;-79
2022/05/22 12:13:27;;;;;;;7.78;2.10;;;32.70;50.20;;;;;;4927492;29;20043;-77
2022/05/22 12:16:00;;;;;;;5.40;2.83;;;32.90;50.00;;;;;;4938199;28;20050;-78
2022/05/22 12:18:44;;;;;;;6.40;2.72;;;33.10;48.20;;;;;;4939362;28;20038;-77
2022/05/22 12:21:27;;;;;;;5.45;2.00;;;33.10;47.90;;;;;;4929757;28;20475;-78
2022/05/22 12:24:06;;;;;;;6.32;2.50;;;33.30;47.30;;;;;;4939098;28;20189;-78
2022/05/22 12:26:31;;;;;;;5.78;2.88;;;33.50;47.90;;;;;;4939526;28;20526;-78
2022/05/22 12:29:00;;;;;;;4.43;2.38;;;33.80;46.60;;;;;;4940363;28;20024;-78
2022/05/22 12:31:29;;;;;;;5.68;2.95;;;34.10;47.10;;;;;;4924374;28;20119;-79
2022/05/22 12:33:57;;;;;;;8.75;3.45;;;34.50;45.70;;;;;;4937815;28;20038;-80
2022/05/22 12:36:25;;;;;;;12.20;3.40;;;34.70;45.00;;;;;;4926924;28;20112;-80
2022/05/22 12:39:11;;;;;;;8.90;3.22;;;34.70;45.40;;;;;;4938208;28;20061;-80
2022/05/22 12:42:02;;;;;;;8.38;3.13;;;35.00;42.30;;;;;;4939345;28;20035;-80
2022/05/22 12:44:28;;;;;;;5.75;3.33;;;34.90;42.70;;;;;;4930545;28;20162;-80
2022/05/22 12:46:56;;;;;;;5.72;2.60;;;34.90;44.40;;;;;;4940058;28;20451;-80
2022/05/22 12:49:24;;;;;;;7.68;2.30;;;35.00;44.80;;;;;;4923069;28;20031;-80
2022/05/22 12:52:05;;;;;;;4.57;2.00;;;35.20;45.30;;;;;;4936274;28;20066;-80
2022/05/22 12:54:32;;;;;;;8.77;2.40;;;35.10;45.90;;;;;;4933464;28;20116;-80
2022/05/22 12:57:12;;;;;;;6.97;2.95;;;34.90;44.90;;;;;;4937012;28;20107;-81
2022/05/22 12:59:38;;;;;;;21.85;3.47;;;35.00;44.40;;;;;;4921905;29;20059;-80
2022/05/22 13:02:04;;;;;;;7.60;3.10;;;35.10;43.80;;;;;;4911980;28;20063;-80
2022/05/22 13:04:53;;;;;;;7.07;2.35;;;35.00;43.20;;;;;;4914079;28;20425;-80
2022/05/22 13:07:25;;;;;;;16.92;3.70;;;35.20;43.30;;;;;;4932164;28;20050;-80
2022/05/22 13:09:51;;;;;;;6.82;1.92;;;35.10;44.20;;;;;;4921832;28;20046;-80
2022/05/22 13:12:18;;;;;;;15.68;3.15;;;35.10;45.30;;;;;;4921967;28;20034;-80